createdAt,value
2022-12-19T00:01:35.990Z,0.56
2022-12-19T00:04:08.138Z,0.45
2022-12-19T00:06:36.026Z,0.54
2022-12-19T00:09:02.726Z,0.48
2022-12-19T00:11:29.646Z,0.49
2022-12-19T00:13:56.729Z,0.55
2022-12-19T00:16:26.051Z,0.56
2022-12-19T00:18:55.097Z,0.58
2022-12-19T00:21:24.497Z,0.57
2022-12-19T00:23:51.799Z,0.57
2022-12-19T00:26:21.663Z,0.52
2022-12-19T00:28:50.640Z,0.57
2022-12-19T00:31:18.775Z,0.59
2022-12-19T00:33:45.599Z,0.59
2022-12-19T00:36:15.184Z,0.52
2022-12-19T00:38:45.004Z,0.57
2022-12-19T00:41:13.948Z,0.56
2022-12-19T00:43:41.321Z,0.57
2022-12-19T00:46:13.703Z,0.57
2022-12-19T00:48:41.049Z,0.55
2022-12-19T00:51:11.038Z,0.58
2022-12-19T00:53:37.584Z,0.58
2022-12-19T00:56:06.835Z,0.62
2022-12-19T00:58:35.618Z,0.62
2022-12-19T01:01:10.626Z,0.64
2022-12-19T01:03:37.532Z,0.61
2022-12-19T01:06:04.731Z,0.61
2022-12-19T01:08:31.926Z,0.59
2022-12-19T01:10:58.686Z,0.60
2022-12-19T01:13:27.738Z,0.69
2022-12-19T01:15:54.338Z,0.63
2022-12-19T01:18:20.812Z,0.63
2022-12-19T01:20:47.532Z,0.59
2022-12-19T01:23:16.372Z,0.63
2022-12-19T01:25:47.944Z,0.61
2022-12-19T01:28:15.647Z,0.56
2022-12-19T01:30:42.878Z,0.65
2022-12-19T01:33:14.559Z,0.71
2022-12-19T01:35:42.330Z,0.64
2022-12-19T01:38:14.475Z,0.62
2022-12-19T01:40:40.976Z,0.61
2022-12-19T01:43:13.779Z,0.64
2022-12-19T01:45:45.704Z,0.72
2022-12-19T01:48:38.686Z,0.63
2022-12-19T01:51:14.057Z,0.71
2022-12-19T01:53:49.843Z,0.75
2022-12-19T01:56:19.443Z,0.85
2022-12-19T01:58:46.550Z,0.74
2022-12-19T02:01:14.511Z,0.80
2022-12-19T02:03:41.633Z,0.82
2022-12-19T02:06:08.767Z,0.91
2022-12-19T02:08:36.588Z,0.84
2022-12-19T02:11:03.069Z,0.90
2022-12-19T02:13:29.862Z,0.90
2022-12-19T02:16:15.215Z,0.97
2022-12-19T02:18:51.834Z,0.95
2022-12-19T02:21:25.281Z,0.93
2022-12-19T02:24:16.358Z,0.95
2022-12-19T02:26:42.791Z,1.01
2022-12-19T02:29:38.654Z,1.02
2022-12-19T02:32:07.060Z,1.06
2022-12-19T02:34:44.255Z,1.06
2022-12-19T02:37:17.740Z,1.18
2022-12-19T02:39:50.841Z,1.19
2022-12-19T02:42:26.646Z,1.12
2022-12-19T02:44:57.302Z,1.25
2022-12-19T02:47:24.625Z,1.15
2022-12-19T02:49:51.134Z,1.16
2022-12-19T02:52:20.583Z,1.16
2022-12-19T02:54:50.208Z,1.21
2022-12-19T02:57:23.457Z,1.23
2022-12-19T03:00:05.902Z,1.26
2022-12-19T03:03:01.507Z,1.29
2022-12-19T03:05:35.423Z,1.26
2022-12-19T03:08:45.088Z,1.23
2022-12-19T03:11:14.781Z,1.24
2022-12-19T03:14:07.375Z,1.20
2022-12-19T03:16:35.806Z,1.27
2022-12-19T03:19:02.973Z,1.30
2022-12-19T03:21:36.592Z,1.37
2022-12-19T03:24:05.170Z,1.34
2022-12-19T03:26:38.310Z,1.31
2022-12-19T03:29:23.142Z,1.29
2022-12-19T03:31:50.056Z,1.20
2022-12-19T03:34:31.471Z,1.24
2022-12-19T03:37:03.363Z,1.36
2022-12-19T03:39:32.342Z,1.33
2022-12-19T03:42:19.676Z,1.39
2022-12-19T03:44:49.884Z,1.31
2022-12-19T03:47:47.060Z,1.37
2022-12-19T03:50:14.136Z,1.40
2022-12-19T03:52:52.572Z,1.44
2022-12-19T03:55:32.106Z,1.41
2022-12-19T03:58:06.836Z,1.42
2022-12-19T04:00:37.882Z,1.46
2022-12-19T04:03:05.758Z,1.49
2022-12-19T04:05:33.846Z,1.52
2022-12-19T04:08:05.662Z,1.48
2022-12-19T04:10:39.207Z,1.44
2022-12-19T04:13:11.972Z,1.50
2022-12-19T04:15:47.510Z,1.51
2022-12-19T04:18:15.943Z,1.50
2022-12-19T04:20:49.375Z,1.54
2022-12-19T04:23:27.192Z,1.45
2022-12-19T04:26:00.199Z,1.43
2022-12-19T04:28:40.695Z,1.43
2022-12-19T04:31:07.979Z,1.49
2022-12-19T04:33:34.476Z,1.47
2022-12-19T04:36:00.984Z,1.49
2022-12-19T04:38:27.783Z,1.47
2022-12-19T04:40:54.295Z,1.47
2022-12-19T04:43:20.809Z,1.49
2022-12-19T04:45:47.270Z,1.44
2022-12-19T04:48:15.460Z,1.49
2022-12-19T04:50:41.938Z,1.47
2022-12-19T04:53:08.467Z,1.48
2022-12-19T04:55:35.106Z,1.53
2022-12-19T04:58:01.671Z,1.57
2022-12-19T05:00:28.157Z,1.57
2022-12-19T05:02:54.750Z,1.60
2022-12-19T05:05:21.369Z,1.53
2022-12-19T05:07:47.807Z,1.58
2022-12-19T05:10:14.485Z,1.55
2022-12-19T05:12:40.982Z,1.68
2022-12-19T05:15:08.033Z,1.61
2022-12-19T05:17:34.785Z,1.62
2022-12-19T05:20:01.310Z,1.60
2022-12-19T05:22:27.996Z,1.58
2022-12-19T05:24:54.467Z,1.66
2022-12-19T05:27:21.037Z,1.67
2022-12-19T05:29:47.530Z,1.63
2022-12-19T05:32:13.967Z,1.65
2022-12-19T05:34:40.458Z,1.61
2022-12-19T05:37:06.905Z,1.66
2022-12-19T05:39:33.428Z,1.59
2022-12-19T05:41:59.900Z,1.68
2022-12-19T05:44:26.683Z,1.72
2022-12-19T05:46:53.284Z,1.77
2022-12-19T05:49:19.745Z,1.69
2022-12-19T05:51:46.728Z,1.72
2022-12-19T05:54:13.210Z,1.69
2022-12-19T05:56:39.675Z,1.76
2022-12-19T05:59:06.461Z,1.72
2022-12-19T06:01:33.050Z,1.81
2022-12-19T06:03:59.669Z,1.82
2022-12-19T06:06:26.979Z,1.81
2022-12-19T06:08:58.719Z,1.82
2022-12-19T06:11:26.042Z,1.86
2022-12-19T06:13:53.009Z,1.88
2022-12-19T06:16:21.041Z,1.83
2022-12-19T06:18:47.654Z,1.78
2022-12-19T06:21:22.040Z,1.80
2022-12-19T06:23:49.089Z,1.86
2022-12-19T06:26:19.974Z,1.87
2022-12-19T06:28:48.327Z,1.83
2022-12-19T06:31:15.743Z,1.83
2022-12-19T06:33:42.415Z,1.75
2022-12-19T06:36:27.043Z,1.79
2022-12-19T06:38:55.284Z,1.80
2022-12-19T06:41:40.333Z,1.82
2022-12-19T06:44:12.171Z,1.87
2022-12-19T06:46:40.110Z,1.80
2022-12-19T06:49:07.389Z,1.82
2022-12-19T06:51:33.984Z,1.82
2022-12-19T06:54:00.632Z,1.83
2022-12-19T06:56:27.145Z,1.79
2022-12-19T06:58:53.662Z,1.90
2022-12-19T07:01:22.025Z,1.86
2022-12-19T07:03:49.291Z,1.89
2022-12-19T07:06:15.827Z,2.03
2022-12-19T07:08:42.610Z,1.86
2022-12-19T07:11:09.077Z,1.99
2022-12-19T07:13:35.542Z,1.92
2022-12-19T07:16:04.361Z,1.89
2022-12-19T07:18:34.447Z,1.92
2022-12-19T07:21:01.671Z,1.82
2022-12-19T07:23:29.340Z,1.88
2022-12-19T07:25:55.895Z,1.85
2022-12-19T07:28:22.503Z,1.99
2022-12-19T07:30:48.972Z,2.00
2022-12-19T07:33:21.033Z,1.98
2022-12-19T07:35:48.277Z,1.92
2022-12-19T07:38:14.762Z,2.03
2022-12-19T07:40:41.199Z,2.05
2022-12-19T07:43:07.793Z,2.02
2022-12-19T07:45:37.244Z,2.07
2022-12-19T07:48:05.566Z,2.05
2022-12-19T07:50:32.797Z,2.10
2022-12-19T07:52:59.941Z,2.14
2022-12-19T07:55:26.957Z,2.14
2022-12-19T07:57:53.922Z,2.24
2022-12-19T08:00:21.567Z,2.23
2022-12-19T08:02:48.375Z,2.28
2022-12-19T08:05:15.084Z,2.28
2022-12-19T08:07:41.588Z,2.34
2022-12-19T08:10:08.970Z,2.41
2022-12-19T08:12:35.461Z,2.44
2022-12-19T08:15:01.892Z,2.38
2022-12-19T08:17:28.472Z,2.42
2022-12-19T08:19:54.942Z,2.50
2022-12-19T08:22:21.417Z,2.44
2022-12-19T08:24:47.893Z,2.53
2022-12-19T08:27:16.439Z,2.57
2022-12-19T08:29:42.987Z,2.69
2022-12-19T08:32:09.538Z,2.81
2022-12-19T08:34:35.966Z,2.93
2022-12-19T08:37:02.453Z,3.05
2022-12-19T08:39:28.955Z,3.16
2022-12-19T08:41:55.437Z,3.28
2022-12-19T08:44:22.043Z,3.39
2022-12-19T08:46:50.469Z,3.36
2022-12-19T08:49:18.642Z,3.64
2022-12-19T08:51:46.024Z,3.77
2022-12-19T08:54:12.566Z,3.95
2022-12-19T08:56:41.388Z,4.19
2022-12-19T08:59:13.314Z,4.33
2022-12-19T09:01:41.564Z,4.69
2022-12-19T09:04:51.709Z,4.99
2022-12-19T09:06:54.620Z,5.08
2022-12-19T09:09:21.176Z,5.37
2022-12-19T09:11:48.447Z,5.69
2022-12-19T09:14:14.985Z,5.51
2022-12-19T09:16:47.066Z,5.40
2022-12-19T09:19:15.626Z,5.71
2022-12-19T09:21:43.398Z,6.09
2022-12-19T09:24:10.736Z,6.42
2022-12-19T09:26:41.999Z,6.48
2022-12-19T09:29:19.880Z,6.85
2022-12-19T09:31:53.901Z,6.36
2022-12-19T09:34:24.034Z,6.50
2022-12-19T09:36:52.167Z,6.65
2022-12-19T09:39:18.741Z,6.76
2022-12-19T09:41:45.149Z,6.70
2022-12-19T09:44:17.582Z,6.62
2022-12-19T09:46:52.386Z,6.79
2022-12-19T09:49:25.018Z,7.06
2022-12-19T09:52:10.981Z,6.84
2022-12-19T09:54:46.077Z,6.78
2022-12-19T09:57:23.102Z,6.34
2022-12-19T10:00:20.519Z,6.03
2022-12-19T10:02:54.375Z,5.55
2022-12-19T10:06:58.939Z,5.33
2022-12-19T10:08:43.074Z,5.39
2022-12-19T10:12:44.974Z,5.49
2022-12-19T10:14:36.632Z,5.51
2022-12-19T10:17:30.111Z,5.58
2022-12-19T10:20:18.133Z,5.83
2022-12-19T10:22:47.794Z,5.76
2022-12-19T10:25:50.484Z,6.00
2022-12-19T10:28:36.590Z,6.02
2022-12-19T10:31:22.240Z,6.02
2022-12-19T10:33:57.063Z,5.88
2022-12-19T10:36:48.750Z,5.74
2022-12-19T10:39:35.888Z,5.60
2022-12-19T10:42:15.835Z,5.32
2022-12-19T10:44:45.436Z,5.22
2022-12-19T10:47:17.176Z,5.21
2022-12-19T10:49:43.676Z,4.98
2022-12-19T10:52:12.611Z,5.04
2022-12-19T10:54:41.053Z,4.89
2022-12-19T10:57:27.075Z,4.93
2022-12-19T11:00:06.573Z,4.83
2022-12-19T11:02:39.103Z,4.93
2022-12-19T11:05:21.152Z,4.71
2022-12-19T11:08:06.835Z,4.88
2022-12-19T11:14:36.530Z,4.98
2022-12-19T11:17:33.615Z,5.21
2022-12-19T11:23:11.980Z,5.73
2022-12-19T11:29:17.074Z,5.54
2022-12-19T11:29:33.802Z,5.85
2022-12-19T11:30:36.478Z,6.78
2022-12-19T11:30:40.968Z,6.60
2022-12-19T11:31:29.642Z,6.92
2022-12-19T11:33:47.394Z,6.71
2022-12-19T11:36:32.803Z,6.96
2022-12-19T11:38:59.906Z,6.84
2022-12-19T11:41:57.321Z,7.08
2022-12-19T11:44:37.248Z,7.24
2022-12-19T11:47:11.465Z,7.35
2022-12-19T11:49:47.384Z,7.25
2022-12-19T11:55:54.152Z,7.28
2022-12-19T11:58:24.079Z,7.35
2022-12-19T12:00:58.486Z,7.62
2022-12-19T12:03:53.919Z,7.97
2022-12-19T12:06:46.100Z,7.69
2022-12-19T12:13:15.039Z,7.42
2022-12-19T12:21:44.787Z,7.59
2022-12-19T12:27:17.391Z,7.45
2022-12-19T12:31:06.026Z,7.50
2022-12-19T12:31:18.281Z,7.65
2022-12-19T12:31:46.437Z,7.25
2022-12-19T12:31:51.386Z,6.83
2022-12-19T12:32:05.786Z,7.06
2022-12-19T12:35:33.020Z,6.88
2022-12-19T12:40:42.153Z,6.70
2022-12-19T12:43:17.169Z,6.84
2022-12-19T12:45:47.695Z,6.76
2022-12-19T12:48:32.782Z,6.43
2022-12-19T12:51:00.658Z,6.55
2022-12-19T12:53:34.525Z,6.73
2022-12-19T12:56:03.220Z,6.88
2022-12-19T12:58:45.408Z,6.86
2022-12-19T13:01:20.324Z,7.30
2022-12-19T13:03:54.828Z,7.31
2022-12-19T13:06:24.790Z,7.55
2022-12-19T13:09:02.013Z,7.77
2022-12-19T13:11:46.861Z,8.01
2022-12-19T13:14:35.283Z,8.21
2022-12-19T13:17:02.777Z,8.19
2022-12-19T13:19:31.477Z,8.11
2022-12-19T13:22:03.664Z,8.29
2022-12-19T13:24:56.757Z,8.12
2022-12-19T13:27:24.726Z,8.00
2022-12-19T13:30:00.428Z,8.08
2022-12-19T13:32:33.711Z,8.11
2022-12-19T13:35:23.648Z,7.96
2022-12-19T13:39:55.540Z,8.09
2022-12-19T13:40:59.187Z,8.07
2022-12-19T13:43:49.647Z,7.74
2022-12-19T13:46:38.035Z,7.89
2022-12-19T13:49:19.574Z,7.77
2022-12-19T13:51:49.300Z,7.74
2022-12-19T13:54:32.918Z,7.65
2022-12-19T13:57:03.037Z,7.61
2022-12-19T13:59:38.633Z,7.46
2022-12-19T14:02:17.725Z,7.30
2022-12-19T14:04:44.903Z,7.14
2022-12-19T14:07:38.369Z,7.00
2022-12-19T14:11:40.923Z,6.97
2022-12-19T14:13:41.589Z,6.77
2022-12-19T14:16:34.829Z,6.74
2022-12-19T14:19:19.709Z,6.59
2022-12-19T14:22:10.855Z,6.63
2022-12-19T14:24:32.702Z,6.67
2022-12-19T14:28:18.428Z,6.37
2022-12-19T14:30:28.326Z,6.38
2022-12-19T14:33:39.577Z,6.33
2022-12-19T14:36:10.777Z,6.26
2022-12-19T14:39:27.800Z,6.27
2022-12-19T14:41:40.857Z,6.26
2022-12-19T14:51:42.576Z,6.22
2022-12-19T14:51:42.793Z,6.06
2022-12-19T14:54:02.261Z,6.04
2022-12-19T14:54:48.108Z,5.99
2022-12-19T14:56:14.095Z,5.85
2022-12-19T14:58:54.064Z,5.92
2022-12-19T15:01:26.888Z,5.77
2022-12-19T15:04:53.198Z,5.71
2022-12-19T15:07:09.332Z,5.71
2022-12-19T15:11:04.445Z,5.78
2022-12-19T15:14:47.270Z,5.74
2022-12-19T15:15:51.379Z,5.61
2022-12-19T15:18:23.951Z,5.57
2022-12-19T15:20:52.307Z,5.61
2022-12-19T15:23:22.385Z,5.59
2022-12-19T15:26:07.041Z,5.55
2022-12-19T15:28:47.966Z,5.48
2022-12-19T15:31:24.590Z,5.39
2022-12-19T15:34:32.405Z,5.30
2022-12-19T15:36:37.648Z,5.27
2022-12-19T15:39:04.427Z,5.24
2022-12-19T15:41:31.355Z,5.24
2022-12-19T15:44:05.863Z,5.19
2022-12-19T15:46:33.470Z,5.15
2022-12-19T15:49:00.147Z,5.12
2022-12-19T15:51:26.738Z,5.07
2022-12-19T15:53:53.536Z,5.18
2022-12-19T15:56:28.603Z,5.27
2022-12-19T15:58:57.219Z,5.14
2022-12-19T16:01:23.919Z,5.12
2022-12-19T16:03:51.224Z,4.97
2022-12-19T16:06:18.259Z,5.08
2022-12-19T16:08:44.787Z,5.06
2022-12-19T16:11:23.418Z,5.07
2022-12-19T16:13:55.587Z,5.04
2022-12-19T16:16:22.584Z,4.98
2022-12-19T16:18:49.240Z,4.91
2022-12-19T16:21:31.542Z,4.97
2022-12-19T16:24:00.622Z,4.92
2022-12-19T16:26:33.464Z,4.95
2022-12-19T16:29:00.610Z,4.89
2022-12-19T16:31:27.963Z,4.88
2022-12-19T16:33:55.856Z,4.89
2022-12-19T16:36:22.652Z,4.87
2022-12-19T16:38:49.261Z,4.77
2022-12-19T16:41:23.259Z,4.77
2022-12-19T16:43:50.421Z,4.81
2022-12-19T16:46:21.732Z,4.69
2022-12-19T16:48:49.010Z,4.71
2022-12-19T16:51:21.249Z,4.79
2022-12-19T16:53:49.139Z,4.82
2022-12-19T16:56:32.660Z,4.75
2022-12-19T16:59:01.929Z,4.64
2022-12-19T17:01:29.000Z,4.73
2022-12-19T17:03:55.739Z,4.67
2022-12-19T17:06:23.566Z,4.72
2022-12-19T17:08:50.114Z,4.67
2022-12-19T17:11:24.307Z,4.62
2022-12-19T17:14:01.287Z,4.62
2022-12-19T17:16:29.765Z,4.54
2022-12-19T17:18:57.884Z,4.57
2022-12-19T17:21:24.493Z,4.69
2022-12-19T17:23:51.318Z,4.56
2022-12-19T17:26:18.635Z,4.56
2022-12-19T17:28:48.277Z,4.52
2022-12-19T17:31:28.361Z,4.50
2022-12-19T17:33:57.767Z,4.52
2022-12-19T17:36:32.871Z,4.57
2022-12-19T17:39:03.935Z,4.56
2022-12-19T17:41:30.721Z,4.58
2022-12-19T17:43:57.384Z,4.54
2022-12-19T17:46:25.270Z,4.52
2022-12-19T17:48:53.532Z,4.53
2022-12-19T17:51:21.995Z,4.56
2022-12-19T17:53:49.489Z,4.56
2022-12-19T17:56:18.591Z,4.51
2022-12-19T17:58:45.147Z,4.41
2022-12-19T18:01:19.643Z,4.44
2022-12-19T18:03:47.667Z,4.40
2022-12-19T18:06:14.769Z,4.51
2022-12-19T18:08:42.126Z,4.50
2022-12-19T18:11:17.912Z,4.57
2022-12-19T18:13:44.474Z,4.54
2022-12-19T18:16:15.458Z,4.50
2022-12-19T18:18:42.151Z,4.55
2022-12-19T18:21:14.316Z,4.49
2022-12-19T18:23:40.932Z,4.44
2022-12-19T18:26:07.930Z,4.44
2022-12-19T18:28:34.415Z,4.55
2022-12-19T18:31:09.776Z,4.64
2022-12-19T18:33:41.122Z,4.63
2022-12-19T18:36:14.936Z,4.67
2022-12-19T18:38:41.390Z,4.63
2022-12-19T18:41:10.868Z,4.69
2022-12-19T18:43:37.362Z,4.51
2022-12-19T18:46:04.249Z,4.53
2022-12-19T18:48:39.237Z,4.58
2022-12-19T18:51:06.092Z,4.62
2022-12-19T18:53:35.785Z,4.53
2022-12-19T18:56:04.833Z,4.53
2022-12-19T18:58:31.707Z,4.52
2022-12-19T19:01:00.441Z,4.60
2022-12-19T19:03:33.700Z,4.51
2022-12-19T19:06:00.908Z,4.48
2022-12-19T19:08:33.208Z,4.59
2022-12-19T19:11:00.527Z,4.56
2022-12-19T19:13:27.209Z,4.53
2022-12-19T19:15:57.666Z,4.50
2022-12-19T19:18:45.078Z,4.60
2022-12-19T19:21:14.591Z,4.48
2022-12-19T19:23:47.406Z,4.53
2022-12-19T19:26:13.849Z,4.46
2022-12-19T19:28:40.362Z,4.49
2022-12-19T19:31:11.105Z,4.42
2022-12-19T19:33:41.813Z,4.52
2022-12-19T19:36:13.567Z,4.61
2022-12-19T19:38:44.132Z,4.46
2022-12-19T19:41:10.751Z,4.55
2022-12-19T19:43:37.224Z,4.49
2022-12-19T19:46:04.426Z,4.49
2022-12-19T19:48:31.357Z,4.71
2022-12-19T19:50:58.401Z,4.69
2022-12-19T19:53:25.024Z,4.58
2022-12-19T19:56:10.903Z,4.47
2022-12-19T19:58:37.501Z,4.49
2022-12-19T20:01:12.742Z,4.45
2022-12-19T20:03:40.308Z,4.43
2022-12-19T20:06:07.439Z,4.42
2022-12-19T20:08:39.680Z,4.45
2022-12-19T20:11:06.930Z,4.44
2022-12-19T20:13:33.406Z,4.32
2022-12-19T20:16:09.035Z,4.41
2022-12-19T20:18:37.733Z,4.47
2022-12-19T20:21:12.320Z,4.52
2022-12-19T20:23:41.324Z,4.47
2022-12-19T20:26:08.354Z,4.46
2022-12-19T20:28:35.165Z,4.51
2022-12-19T20:31:02.108Z,4.46
2022-12-19T20:33:28.818Z,4.47
2022-12-19T20:35:56.711Z,4.43
2022-12-19T20:38:23.671Z,4.48
2022-12-19T20:40:52.887Z,4.45
2022-12-19T20:43:19.310Z,4.37
2022-12-19T20:45:45.762Z,4.46
2022-12-19T20:48:12.229Z,4.43
2022-12-19T20:50:43.065Z,4.44
2022-12-19T20:53:10.079Z,4.37
2022-12-19T20:55:36.563Z,4.38
2022-12-19T20:58:03.103Z,4.34
2022-12-19T21:00:29.580Z,4.29
2022-12-19T21:05:42.614Z,4.37
2022-12-19T21:08:09.209Z,4.31
2022-12-19T21:10:36.009Z,4.21
2022-12-19T21:13:02.518Z,4.22
2022-12-19T21:15:30.954Z,4.15
2022-12-19T21:17:57.445Z,4.18
2022-12-19T21:20:26.110Z,4.11
2022-12-19T21:22:54.939Z,4.07
2022-12-19T21:25:21.584Z,3.94
2022-12-19T21:27:48.072Z,3.97
2022-12-19T21:30:14.596Z,4.05
2022-12-19T21:32:41.080Z,4.12
2022-12-19T21:35:08.100Z,4.10
2022-12-19T21:37:39.777Z,4.12
2022-12-19T21:40:10.041Z,3.94
2022-12-19T21:42:36.518Z,4.00
2022-12-19T21:45:03.148Z,4.02
2022-12-19T21:47:29.584Z,3.98
2022-12-19T21:49:56.007Z,3.89
2022-12-19T21:52:22.485Z,3.90
2022-12-19T21:54:49.000Z,3.74
2022-12-19T21:57:15.493Z,3.61
2022-12-19T21:59:41.929Z,3.65
2022-12-19T22:02:11.759Z,3.54
2022-12-19T22:04:38.558Z,3.50
2022-12-19T22:07:05.503Z,3.53
2022-12-19T22:09:32.015Z,3.53
2022-12-19T22:11:58.518Z,3.60
2022-12-19T22:14:25.539Z,3.57
2022-12-19T22:16:52.137Z,3.70
2022-12-19T22:19:19.532Z,3.58
2022-12-19T22:21:47.303Z,3.54
2022-12-19T22:24:15.501Z,3.66
2022-12-19T22:26:42.146Z,3.56
2022-12-19T22:29:11.154Z,3.54
2022-12-19T22:31:38.806Z,3.48
2022-12-19T22:34:08.211Z,3.54
2022-12-19T22:36:36.669Z,3.63
2022-12-19T22:39:06.403Z,3.67
2022-12-19T22:41:34.237Z,3.68
2022-12-19T22:44:00.743Z,3.66
2022-12-19T22:46:33.211Z,3.71
2022-12-19T22:49:02.241Z,3.56
2022-12-19T22:51:30.571Z,3.67
2022-12-19T22:53:57.892Z,3.73
2022-12-19T22:56:26.332Z,3.72
2022-12-19T22:58:54.686Z,3.74
2022-12-19T23:01:27.352Z,3.64
2022-12-19T23:03:56.747Z,3.64
2022-12-19T23:06:25.517Z,3.82
2022-12-19T23:08:52.794Z,3.66
2022-12-19T23:11:22.596Z,3.66
2022-12-19T23:13:49.541Z,3.64
2022-12-19T23:16:16.710Z,3.64
2022-12-19T23:18:43.339Z,3.57
2022-12-19T23:21:11.138Z,3.62
2022-12-19T23:23:39.915Z,3.63
2022-12-19T23:26:15.029Z,3.61
2022-12-19T23:28:44.263Z,3.60
2022-12-19T23:31:13.655Z,3.69
2022-12-19T23:33:40.187Z,3.60
2022-12-19T23:36:07.259Z,3.61
2022-12-19T23:38:34.105Z,3.67
2022-12-19T23:41:08.618Z,3.71
2022-12-19T23:43:36.406Z,3.61
2022-12-19T23:46:14.731Z,3.56
2022-12-19T23:48:41.824Z,3.62
2022-12-19T23:51:13.514Z,3.64
2022-12-19T23:53:40.629Z,3.64
2022-12-19T23:56:11.744Z,3.64
2022-12-19T23:58:38.433Z,3.81
